Flugplatz Saarbrücken

Bericht für EDDR

vom 23.02. um 23:50 UTC

Wind 11 kt aus 300°

Sichtweite 10 km oder mehr

schwacher Regen

gering bewölkt in 600 ft

aufgebrochene Bewölkung in 1000 ft

aufgebrochene Bewölkung in 2400 ft

Temperatur 7.0°C

Taupunkt 6.0°C

Luftfeuchtigkeit 93%

Luftdruck 1024 hPa

EDDR 232350Z 30011KT 9999 -RA FEW006 BKN010 BKN024 07/06 Q1024

Prognose für EDDR

vom 23.02. um 00:00 UTC

Zwischen 00:00 UTC und 00:00 UTC

Wind 10 kt aus 270°

Sichtweite 10 km oder mehr

aufgebrochene Bewölkung in 1000 ft


Zwischen 00:00 und 00:00 UTC übergehend zu

Wind 5 kt aus 230°

Sichtweite 10 km oder mehr

aufgebrochene Bewölkung in 800 ft


Zwischen 00:00 UTC und 00:00 UTC zeitweise

Sichtweite 2500 m

Regen

feuchter Dunst

aufgebrochene Bewölkung in 400 ft


Zwischen 00:00 UTC und 00:00 UTC zeitweise

aufgebrochene Bewölkung in 400 ft


Zwischen 00:00 und 00:00 UTC übergehend zu

Wind 15 kt aus 230° in Böen 25 kt

Sichtweite 10 km oder mehr

aufgebrochene Bewölkung in 800 ft


Zwischen 00:00 UTC und 00:00 UTC zeitweise

Wind 20 kt aus 240° in Böen 30 kt

Regen

TAF EDDR 232300Z 2400/2424 27010KT 9999 BKN010 BECMG 2402/2405 23005KT BKN008 TEMPO 2404/2411 2500 RA BR BKN004 TEMPO 2411/2413 BKN004 BECMG 2411/2415 23015G25KT TEMPO 2422/2424 24020G30KT RA
Impressum